createdAt,value
2019-06-15T00:01:19.209Z,7.17
2019-06-15T00:03:45.289Z,8.80
2019-06-15T00:06:11.256Z,7.33
2019-06-15T00:08:37.267Z,7.70
2019-06-15T00:11:03.409Z,7.97
2019-06-15T00:13:29.398Z,7.00
2019-06-15T00:15:55.396Z,7.00
2019-06-15T00:18:21.389Z,7.80
2019-06-15T00:20:47.428Z,7.80
2019-06-15T00:23:13.419Z,6.67
2019-06-15T00:25:39.484Z,8.53
2019-06-15T00:28:05.584Z,8.10
2019-06-15T00:30:31.621Z,7.83
2019-06-15T00:32:57.645Z,8.17
2019-06-15T00:35:23.640Z,7.63
2019-06-15T00:37:49.666Z,8.37
2019-06-15T00:40:16.229Z,6.70
2019-06-15T00:42:42.207Z,7.03
2019-06-15T00:45:08.424Z,8.37
2019-06-15T00:47:34.570Z,7.43
2019-06-15T00:50:00.805Z,8.93
2019-06-15T00:52:26.816Z,7.90
2019-06-15T00:54:52.944Z,7.90
2019-06-15T00:57:19.036Z,9.63
2019-06-15T00:59:45.041Z,7.23
2019-06-15T01:02:11.406Z,10.07
2019-06-15T01:04:37.543Z,7.70
2019-06-15T01:07:03.773Z,7.97
2019-06-15T01:09:29.999Z,7.87
2019-06-15T01:11:56.105Z,7.27
2019-06-15T01:14:22.225Z,7.60
2019-06-15T01:16:48.213Z,8.00
2019-06-15T01:19:14.298Z,8.47
2019-06-15T01:21:40.423Z,8.30
2019-06-15T01:24:06.481Z,9.50
2019-06-15T01:26:32.477Z,9.37
2019-06-15T01:28:58.495Z,8.63
2019-06-15T01:31:24.606Z,8.73
2019-06-15T01:33:50.639Z,7.60
2019-06-15T01:36:16.633Z,9.30
2019-06-15T01:38:42.642Z,7.60
2019-06-15T01:41:08.685Z,8.37
2019-06-15T01:43:34.731Z,8.63
2019-06-15T01:46:00.781Z,7.83
2019-06-15T01:48:26.895Z,9.00
2019-06-15T01:50:52.886Z,11.50
2019-06-15T01:53:18.862Z,8.40
2019-06-15T01:55:44.875Z,8.93
2019-06-15T01:58:11.157Z,18.30
2019-06-15T02:00:37.202Z,11.90
2019-06-15T02:03:03.265Z,11.33
2019-06-15T02:05:29.239Z,11.10
2019-06-15T02:07:55.246Z,8.77
2019-06-15T02:10:27.302Z,10.23
2019-06-15T02:12:53.285Z,9.80
2019-06-15T02:15:19.293Z,10.43
2019-06-15T02:17:45.284Z,9.37
2019-06-15T02:20:11.683Z,9.77
2019-06-15T02:22:37.693Z,10.13
2019-06-15T02:25:04.916Z,10.50
2019-06-15T02:27:31.169Z,9.80
2019-06-15T02:29:57.122Z,9.83
2019-06-15T02:32:23.097Z,10.63
2019-06-15T02:34:49.103Z,11.27
2019-06-15T02:37:15.072Z,10.90
2019-06-15T02:39:41.122Z,10.33
2019-06-15T02:42:07.202Z,9.87
2019-06-15T02:44:33.339Z,10.87
2019-06-15T02:46:59.335Z,10.27
2019-06-15T02:49:25.320Z,8.97
2019-06-15T02:51:51.567Z,10.43
2019-06-15T02:54:17.555Z,9.90
2019-06-15T02:56:43.573Z,9.40
2019-06-15T02:59:09.540Z,9.00
2019-06-15T03:01:35.548Z,9.63
2019-06-15T03:04:01.852Z,10.77
2019-06-15T03:06:28.069Z,9.03
2019-06-15T03:08:54.353Z,9.77
2019-06-15T03:11:20.373Z,9.63
2019-06-15T03:13:47.099Z,9.67
2019-06-15T03:16:13.196Z,9.57
2019-06-15T03:18:39.285Z,10.47
2019-06-15T03:21:05.348Z,9.97
2019-06-15T03:23:31.336Z,10.83
2019-06-15T03:26:05.449Z,10.00
2019-06-15T03:28:25.500Z,11.27
2019-06-15T03:30:51.515Z,11.30
2019-06-15T03:33:17.936Z,11.03
2019-06-15T03:35:43.991Z,12.33
2019-06-15T03:38:09.976Z,11.03
2019-06-15T03:40:36.048Z,10.90
2019-06-15T03:43:02.046Z,11.50
2019-06-15T03:45:28.053Z,14.27
2019-06-15T03:47:54.101Z,12.37
2019-06-15T03:50:20.073Z,12.80
2019-06-15T03:52:46.098Z,12.20
2019-06-15T03:55:12.382Z,11.60
2019-06-15T03:57:38.729Z,12.73
2019-06-15T04:00:25.001Z,13.33
2019-06-15T04:02:51.045Z,12.37
2019-06-15T04:05:17.031Z,13.03
2019-06-15T04:07:43.044Z,12.03
2019-06-15T04:10:09.024Z,11.27
2019-06-15T04:12:35.289Z,12.40
2019-06-15T04:15:01.277Z,11.90
2019-06-15T04:17:27.261Z,12.07
2019-06-15T04:19:53.306Z,11.90
2019-06-15T04:22:19.315Z,13.67
2019-06-15T04:24:45.421Z,12.23
2019-06-15T04:27:12.448Z,13.83
2019-06-15T04:29:38.468Z,12.57
2019-06-15T04:32:04.507Z,12.37
2019-06-15T04:34:30.625Z,13.67
2019-06-15T04:36:56.609Z,12.80
2019-06-15T04:39:22.704Z,13.83
2019-06-15T04:41:48.731Z,12.20
2019-06-15T04:44:14.720Z,11.77
2019-06-15T04:46:40.780Z,11.80
2019-06-15T04:49:06.853Z,13.67
2019-06-15T04:51:33.092Z,12.90
2019-06-15T04:53:59.128Z,13.63
2019-06-15T04:56:25.136Z,12.97
2019-06-15T04:58:51.110Z,12.00
2019-06-15T05:01:17.372Z,13.30
2019-06-15T05:03:43.373Z,14.13
2019-06-15T05:06:09.402Z,12.27
2019-06-15T05:08:35.404Z,13.73
2019-06-15T05:11:03.616Z,12.50
2019-06-15T05:13:29.288Z,12.63
2019-06-15T05:15:55.267Z,11.97
2019-06-15T05:18:21.281Z,12.47
2019-06-15T05:20:47.282Z,14.00
2019-06-15T05:23:13.320Z,13.80
2019-06-15T05:25:39.404Z,12.17
2019-06-15T05:28:05.400Z,13.27
2019-06-15T05:30:31.405Z,11.60
2019-06-15T05:32:57.387Z,14.23
2019-06-15T05:35:23.721Z,13.87
2019-06-15T05:37:49.845Z,12.03
2019-06-15T05:40:15.933Z,13.00
2019-06-15T05:42:41.975Z,13.70
2019-06-15T05:45:08.315Z,13.63
2019-06-15T05:47:34.341Z,13.23
2019-06-15T05:50:00.320Z,13.60
2019-06-15T05:52:26.461Z,12.70
2019-06-15T05:54:52.490Z,12.60
2019-06-15T05:57:21.931Z,12.47
2019-06-15T05:59:46.647Z,13.33
2019-06-15T06:02:12.643Z,12.30
2019-06-15T06:04:38.732Z,12.60
2019-06-15T06:07:04.750Z,12.70
2019-06-15T06:09:30.749Z,12.60
2019-06-15T06:11:56.773Z,13.00
2019-06-15T06:14:22.828Z,12.77
2019-06-15T06:16:48.841Z,13.63
2019-06-15T06:19:14.822Z,12.97
2019-06-15T06:21:40.884Z,12.70
2019-06-15T06:24:06.904Z,12.87
2019-06-15T06:26:32.994Z,13.10
2019-06-15T06:28:59.024Z,12.80
2019-06-15T06:31:24.998Z,12.03
2019-06-15T06:33:51.368Z,13.73
2019-06-15T06:36:17.426Z,13.40
2019-06-15T06:38:43.416Z,13.53
2019-06-15T06:41:09.456Z,12.20
2019-06-15T06:43:35.432Z,14.07
2019-06-15T06:46:01.437Z,12.73
2019-06-15T06:48:27.750Z,13.10
2019-06-15T06:50:53.793Z,14.00
2019-06-15T06:53:19.912Z,13.60
2019-06-15T06:55:46.308Z,12.93
2019-06-15T06:58:12.327Z,13.90
2019-06-15T07:00:38.336Z,15.13
2019-06-15T07:03:04.564Z,13.30
2019-06-15T07:05:30.984Z,12.67
2019-06-15T07:07:57.309Z,13.30
2019-06-15T07:10:23.361Z,14.10
2019-06-15T07:12:49.383Z,13.03
2019-06-15T07:15:15.610Z,13.50
2019-06-15T07:17:41.643Z,13.03
2019-06-15T07:20:08.332Z,14.00
2019-06-15T07:22:34.358Z,12.77
2019-06-15T07:25:00.747Z,13.00
2019-06-15T07:27:27.021Z,13.90
2019-06-15T07:29:53.072Z,16.33
2019-06-15T07:32:19.182Z,14.47
2019-06-15T07:34:45.312Z,15.80
2019-06-15T07:37:11.382Z,13.20
2019-06-15T07:39:37.398Z,13.07
2019-06-15T07:42:03.615Z,15.00
2019-06-15T07:44:29.713Z,13.77
2019-06-15T07:46:55.729Z,14.40
2019-06-15T07:49:21.786Z,14.77
2019-06-15T07:51:48.038Z,13.90
2019-06-15T07:54:14.195Z,15.13
2019-06-15T07:56:40.251Z,14.73
2019-06-15T07:59:06.302Z,13.87
2019-06-15T08:01:33.177Z,16.80
2019-06-15T08:03:59.179Z,15.30
2019-06-15T08:06:25.204Z,14.73
2019-06-15T08:08:51.375Z,14.43
2019-06-15T08:11:17.532Z,15.53
2019-06-15T08:13:43.618Z,15.60
2019-06-15T08:16:10.466Z,15.83
2019-06-15T08:18:36.604Z,13.37
2019-06-15T08:21:03.026Z,14.30
2019-06-15T08:23:29.072Z,19.50
2019-06-15T08:25:55.275Z,56.60
2019-06-15T08:28:21.774Z,18.60
2019-06-15T08:30:48.023Z,12.60
2019-06-15T08:33:14.445Z,18.00
2019-06-15T08:35:40.613Z,14.73
2019-06-15T08:38:06.930Z,26.77
2019-06-15T08:40:33.301Z,25.70
2019-06-15T08:42:59.368Z,14.97
2019-06-15T08:45:25.556Z,12.30
2019-06-15T08:47:51.693Z,12.47
2019-06-15T08:50:17.715Z,12.80
2019-06-15T08:52:43.820Z,11.60
2019-06-15T08:55:11.074Z,12.80
2019-06-15T08:57:40.294Z,14.13
2019-06-15T09:00:07.153Z,11.50
2019-06-15T09:02:33.304Z,13.20
2019-06-15T09:04:59.330Z,14.27
2019-06-15T09:07:25.398Z,12.07
2019-06-15T09:09:51.393Z,17.07
2019-06-15T09:12:24.313Z,13.30
2019-06-15T09:14:49.589Z,12.80
2019-06-15T09:17:15.737Z,18.10
2019-06-15T09:19:41.882Z,9.90
2019-06-15T09:22:07.874Z,17.13
2019-06-15T09:24:33.897Z,17.93
2019-06-15T09:26:59.956Z,10.40
2019-06-15T09:29:29.789Z,12.93
2019-06-15T09:31:55.938Z,22.20
2019-06-15T09:34:21.984Z,15.47
2019-06-15T09:36:48.094Z,20.70
2019-06-15T09:39:14.743Z,11.67
2019-06-15T09:41:41.125Z,16.00
2019-06-15T09:44:07.639Z,16.50
2019-06-15T09:46:33.744Z,17.70
2019-06-15T09:48:59.973Z,20.13
2019-06-15T09:51:26.067Z,17.07
2019-06-15T09:53:52.149Z,17.00
2019-06-15T09:56:18.243Z,17.40
2019-06-15T09:58:44.403Z,20.03
2019-06-15T10:01:10.494Z,20.93
2019-06-15T10:03:36.693Z,51.50
2019-06-15T10:06:03.165Z,32.40
2019-06-15T10:08:29.211Z,53.17
2019-06-15T10:10:55.232Z,54.80
2019-06-15T10:13:21.227Z,124.67
2019-06-15T10:15:47.270Z,54.57
2019-06-15T10:18:13.583Z,50.73
2019-06-15T10:20:39.860Z,39.13
2019-06-15T10:23:05.895Z,45.83
2019-06-15T10:25:31.896Z,54.53
2019-06-15T10:27:57.889Z,43.73
2019-06-15T10:30:24.030Z,51.00
2019-06-15T10:32:50.074Z,35.43
2019-06-15T10:35:16.160Z,28.23
2019-06-15T10:37:42.206Z,27.73
2019-06-15T10:40:08.597Z,23.43
2019-06-15T10:42:36.654Z,21.90
2019-06-15T10:45:05.717Z,23.03
2019-06-15T10:47:31.757Z,16.87
2019-06-15T10:49:59.088Z,20.83
2019-06-15T10:52:25.117Z,23.03
2019-06-15T10:54:51.117Z,23.10
2019-06-15T10:57:17.126Z,21.17
2019-06-15T10:59:56.356Z,21.60
2019-06-15T11:02:11.134Z,26.40
2019-06-15T11:04:37.160Z,20.97
2019-06-15T11:07:03.947Z,45.90
2019-06-15T11:09:29.997Z,43.23
2019-06-15T11:11:56.128Z,92.27
2019-06-15T11:14:23.089Z,27.67
2019-06-15T11:16:49.289Z,45.60
2019-06-15T11:19:15.489Z,68.60
2019-06-15T11:21:41.559Z,25.00
2019-06-15T11:24:07.557Z,18.57
2019-06-15T11:26:33.541Z,41.33
2019-06-15T11:28:59.614Z,19.00
2019-06-15T11:31:25.699Z,13.50
2019-06-15T11:33:51.731Z,12.63
2019-06-15T11:36:17.728Z,18.17
2019-06-15T11:38:44.007Z,13.03
2019-06-15T11:41:10.063Z,14.70
2019-06-15T11:43:36.063Z,10.90
2019-06-15T11:46:02.369Z,13.40
2019-06-15T11:48:28.387Z,17.80
2019-06-15T11:50:54.626Z,16.70
2019-06-15T11:53:20.672Z,21.37
2019-06-15T11:55:46.658Z,22.00
2019-06-15T11:58:13.702Z,12.40
2019-06-15T12:00:40.098Z,10.33
2019-06-15T12:03:06.118Z,9.80
2019-06-15T12:05:32.149Z,27.77
2019-06-15T12:07:58.179Z,25.80
2019-06-15T12:10:24.233Z,17.80
2019-06-15T12:12:50.254Z,17.80
2019-06-15T12:15:16.507Z,20.33
2019-06-15T12:17:42.544Z,8.70
2019-06-15T12:20:08.943Z,23.20
2019-06-15T12:22:35.080Z,56.83
2019-06-15T12:25:01.295Z,22.43
2019-06-15T12:27:27.322Z,57.20
2019-06-15T12:29:53.354Z,19.47
2019-06-15T12:32:19.370Z,14.60
2019-06-15T12:34:45.416Z,17.00
2019-06-15T12:37:11.488Z,11.50
2019-06-15T12:39:41.635Z,17.10
2019-06-15T12:42:05.401Z,18.80
2019-06-15T12:44:31.513Z,9.57
2019-06-15T12:46:57.545Z,10.63
2019-06-15T12:49:23.667Z,13.00
2019-06-15T12:51:49.740Z,12.77
2019-06-15T12:54:15.754Z,13.37
2019-06-15T12:56:41.849Z,11.53
2019-06-15T12:59:08.147Z,11.10
2019-06-15T13:01:34.341Z,7.30
2019-06-15T13:04:00.737Z,10.77
2019-06-15T13:06:26.864Z,10.47
2019-06-15T13:08:53.000Z,8.17
2019-06-15T13:11:19.028Z,18.33
2019-06-15T13:13:45.110Z,9.80
2019-06-15T13:16:11.159Z,8.80
2019-06-15T13:18:37.197Z,7.20
2019-06-15T13:21:03.279Z,10.07
2019-06-15T13:23:29.401Z,7.20
2019-06-15T13:25:55.421Z,6.17
2019-06-15T13:28:21.480Z,7.50
2019-06-15T13:30:47.565Z,11.23
2019-06-15T13:33:13.678Z,8.00
2019-06-15T13:35:39.859Z,4.93
2019-06-15T13:38:05.835Z,9.10
2019-06-15T13:40:32.089Z,4.73
2019-06-15T13:42:58.117Z,7.13
2019-06-15T13:45:24.185Z,8.97
2019-06-15T13:47:50.213Z,6.13
2019-06-15T13:50:16.506Z,6.43
2019-06-15T13:52:42.713Z,7.73
2019-06-15T13:55:09.121Z,7.10
2019-06-15T13:57:35.086Z,7.73
2019-06-15T14:00:01.327Z,9.47
2019-06-15T14:02:27.424Z,6.67
2019-06-15T14:04:53.538Z,6.83
2019-06-15T14:07:19.876Z,7.57
2019-06-15T14:09:45.913Z,9.77
2019-06-15T14:12:12.128Z,11.07
2019-06-15T14:14:38.205Z,19.37
2019-06-15T14:17:04.575Z,37.17
2019-06-15T14:19:30.560Z,18.73
2019-06-15T14:21:56.604Z,43.53
2019-06-15T14:24:22.611Z,40.70
2019-06-15T14:26:48.685Z,26.93
2019-06-15T14:29:17.445Z,15.50
2019-06-15T14:31:50.197Z,26.33
2019-06-15T14:34:10.648Z,29.60
2019-06-15T14:36:36.623Z,13.20
2019-06-15T14:39:05.233Z,14.57
2019-06-15T14:41:31.328Z,14.27
2019-06-15T14:43:57.360Z,14.83
2019-06-15T14:46:23.362Z,11.10
2019-06-15T14:48:49.402Z,10.10
2019-06-15T14:51:15.499Z,14.50
2019-06-15T14:53:45.182Z,12.30
2019-06-15T14:56:09.470Z,12.73
2019-06-15T14:58:36.570Z,9.10
2019-06-15T15:01:02.860Z,6.70
2019-06-15T15:03:29.686Z,8.10
2019-06-15T15:05:55.798Z,8.30
2019-06-15T15:08:21.897Z,6.53
2019-06-15T15:10:48.005Z,8.97
2019-06-15T15:13:14.062Z,10.23
2019-06-15T15:15:40.096Z,6.67
2019-06-15T15:18:06.972Z,12.80
2019-06-15T15:20:33.128Z,9.87
2019-06-15T15:22:59.202Z,9.33
2019-06-15T15:25:26.282Z,10.33
2019-06-15T15:27:52.457Z,8.20
2019-06-15T15:30:27.106Z,9.77
2019-06-15T15:32:53.403Z,11.23
2019-06-15T15:35:19.393Z,10.53
2019-06-15T15:37:46.353Z,10.80
2019-06-15T15:40:12.597Z,8.90
2019-06-15T15:42:38.717Z,10.63
2019-06-15T15:45:07.659Z,7.03
2019-06-15T15:47:35.935Z,12.00
2019-06-15T15:50:06.261Z,13.80
2019-06-15T15:52:31.609Z,8.20
2019-06-15T15:54:57.782Z,24.07
2019-06-15T15:57:26.249Z,30.83
2019-06-15T15:59:51.835Z,33.30
2019-06-15T16:02:17.937Z,13.70
2019-06-15T16:04:43.952Z,7.83
2019-06-15T16:07:10.220Z,27.00
2019-06-15T16:09:36.302Z,61.53
2019-06-15T16:12:02.527Z,44.00
2019-06-15T16:14:28.644Z,12.90
2019-06-15T16:16:56.000Z,13.40
2019-06-15T16:19:22.204Z,15.90
2019-06-15T16:21:48.202Z,20.47
2019-06-15T16:24:16.673Z,11.70
2019-06-15T16:26:42.629Z,14.60
2019-06-15T16:29:08.721Z,15.27
2019-06-15T16:31:37.223Z,11.83
2019-06-15T16:34:03.024Z,9.50
2019-06-15T16:36:30.097Z,14.23
2019-06-15T16:38:56.121Z,11.13
2019-06-15T16:41:22.208Z,11.70
2019-06-15T16:43:48.520Z,13.53
2019-06-15T16:46:17.018Z,10.03
2019-06-15T16:48:42.593Z,7.70
2019-06-15T16:51:08.780Z,9.73
2019-06-15T16:53:37.244Z,10.67
2019-06-15T16:56:03.165Z,11.50
2019-06-15T16:58:29.133Z,9.17
2019-06-15T17:00:57.098Z,8.90
2019-06-15T17:03:26.076Z,8.40
2019-06-15T17:05:51.110Z,8.17
2019-06-15T17:08:17.421Z,9.33
2019-06-15T17:10:43.573Z,10.93
2019-06-15T17:13:10.002Z,9.43
2019-06-15T17:15:37.175Z,9.90
2019-06-15T17:18:03.796Z,11.57
2019-06-15T17:20:36.684Z,9.97
2019-06-15T17:23:02.670Z,29.30
2019-06-15T17:25:28.691Z,26.47
2019-06-15T17:27:56.336Z,55.17
2019-06-15T17:30:22.628Z,29.53
2019-06-15T17:32:48.772Z,77.57
2019-06-15T17:35:16.898Z,22.43
2019-06-15T17:37:42.791Z,18.37
2019-06-15T17:40:09.045Z,12.63
2019-06-15T17:42:36.923Z,13.07
2019-06-15T17:45:06.522Z,15.33
2019-06-15T17:47:32.310Z,10.60
2019-06-15T17:49:58.313Z,10.27
2019-06-15T17:52:26.415Z,14.87
2019-06-15T17:54:52.645Z,13.87
2019-06-15T17:57:18.735Z,16.60
2019-06-15T17:59:46.902Z,17.60
2019-06-15T18:02:12.710Z,18.27
2019-06-15T18:04:38.789Z,21.33
2019-06-15T18:07:05.827Z,21.53
2019-06-15T18:09:31.883Z,22.73
2019-06-15T18:11:57.981Z,21.43
2019-06-15T18:14:26.264Z,23.07
2019-06-15T18:16:52.012Z,23.03
2019-06-15T18:19:17.997Z,21.00
2019-06-15T18:21:46.501Z,20.70
2019-06-15T18:24:12.027Z,21.30
2019-06-15T18:26:38.108Z,23.23
2019-06-15T18:29:04.202Z,20.00
2019-06-15T18:31:30.262Z,21.17
2019-06-15T18:34:08.892Z,20.47
2019-06-15T18:36:26.079Z,20.30
2019-06-15T18:38:52.092Z,19.83
2019-06-15T18:41:18.191Z,20.90
2019-06-15T18:43:44.505Z,18.50
2019-06-15T18:46:10.600Z,25.03
2019-06-15T18:48:36.612Z,19.17
2019-06-15T18:51:02.792Z,17.70
2019-06-15T18:53:28.856Z,16.77
2019-06-15T18:55:56.241Z,18.33
2019-06-15T18:58:22.499Z,19.33
2019-06-15T19:00:48.511Z,18.77
2019-06-15T19:03:16.820Z,18.57
2019-06-15T19:05:43.205Z,19.00
2019-06-15T19:08:09.270Z,17.90
2019-06-15T19:10:36.205Z,18.70
2019-06-15T19:13:04.007Z,19.70
2019-06-15T19:15:30.342Z,21.57
2019-06-15T19:17:56.589Z,18.23
2019-06-15T19:20:22.595Z,15.70
2019-06-15T19:22:48.942Z,15.27
2019-06-15T19:25:16.177Z,15.80
2019-06-15T19:27:42.342Z,16.90
2019-06-15T19:30:08.605Z,14.20
2019-06-15T19:32:36.828Z,16.80
2019-06-15T19:35:04.836Z,14.40
2019-06-15T19:37:33.847Z,14.43
2019-06-15T19:39:58.941Z,13.87
2019-06-15T19:42:25.998Z,14.60
2019-06-15T19:44:52.149Z,13.30
2019-06-15T19:47:18.401Z,13.40
2019-06-15T19:49:46.556Z,17.60
2019-06-15T19:52:12.392Z,13.90
2019-06-15T19:54:38.565Z,12.97
2019-06-15T19:57:06.854Z,12.80
2019-06-15T19:59:32.770Z,13.10
2019-06-15T20:02:01.532Z,11.83
2019-06-15T20:04:27.616Z,22.40
2019-06-15T20:06:53.697Z,15.07
2019-06-15T20:09:19.802Z,13.87
2019-06-15T20:11:46.880Z,14.97
2019-06-15T20:14:13.028Z,13.90
2019-06-15T20:16:39.053Z,14.10
2019-06-15T20:19:06.823Z,13.73
2019-06-15T20:21:33.194Z,12.90
2019-06-15T20:23:59.371Z,12.53
2019-06-15T20:26:26.816Z,13.70
2019-06-15T20:28:53.098Z,14.03
2019-06-15T20:31:19.159Z,11.83
2019-06-15T20:33:46.611Z,13.83
2019-06-15T20:36:13.207Z,14.87
2019-06-15T20:38:39.473Z,19.80
2019-06-15T20:41:08.758Z,20.67
2019-06-15T20:43:36.584Z,42.17
2019-06-15T20:46:02.999Z,34.13
2019-06-15T20:48:29.063Z,20.37
2019-06-15T20:50:56.751Z,25.00
2019-06-15T20:53:22.948Z,45.40
2019-06-15T20:55:49.255Z,51.20
2019-06-15T20:58:17.063Z,18.80
2019-06-15T21:00:43.164Z,20.03
2019-06-15T21:03:09.165Z,15.40
2019-06-15T21:05:41.551Z,14.87
2019-06-15T21:08:03.493Z,18.07
2019-06-15T21:10:29.522Z,20.00
2019-06-15T21:12:55.670Z,16.47
2019-06-15T21:15:25.491Z,14.33
2019-06-15T21:17:51.632Z,13.43
2019-06-15T21:20:17.637Z,25.23
2019-06-15T21:22:46.352Z,13.77
2019-06-15T21:25:11.875Z,13.40
2019-06-15T21:27:37.892Z,14.23
2019-06-15T21:30:08.080Z,16.07
2019-06-15T21:32:34.121Z,10.03
2019-06-15T21:35:00.159Z,10.40
2019-06-15T21:37:26.182Z,12.10
2019-06-15T21:39:52.194Z,9.00
2019-06-15T21:42:18.175Z,8.90
2019-06-15T21:44:46.789Z,7.80
2019-06-15T21:47:12.132Z,9.70
2019-06-15T21:49:38.268Z,10.20
2019-06-15T21:52:04.263Z,10.90
2019-06-15T21:54:30.232Z,12.70
2019-06-15T21:56:56.508Z,12.67
2019-06-15T21:59:22.683Z,14.30
2019-06-15T22:01:48.756Z,15.73
2019-06-15T22:04:16.661Z,19.93
2019-06-15T22:06:42.670Z,21.87
2019-06-15T22:09:10.676Z,20.70
2019-06-15T22:11:36.690Z,21.90
2019-06-15T22:14:02.815Z,22.77
2019-06-15T22:16:29.004Z,25.67
2019-06-15T22:18:55.142Z,24.87
2019-06-15T22:21:21.359Z,23.37
2019-06-15T22:23:47.531Z,21.77
2019-06-15T22:26:13.536Z,15.50
2019-06-15T22:28:39.663Z,12.93
2019-06-15T22:31:06.687Z,11.60
2019-06-15T22:33:33.012Z,10.93
2019-06-15T22:35:59.025Z,13.07
2019-06-15T22:38:25.062Z,11.77
2019-06-15T22:40:51.064Z,13.63
2019-06-15T22:43:17.275Z,13.33
2019-06-15T22:45:43.313Z,14.13
2019-06-15T22:48:09.623Z,13.10
2019-06-15T22:50:36.197Z,13.20
2019-06-15T22:53:04.704Z,11.20
2019-06-15T22:55:30.481Z,12.37
2019-06-15T22:57:56.729Z,11.63
2019-06-15T23:00:22.847Z,11.57
2019-06-15T23:02:48.880Z,10.17
2019-06-15T23:05:17.118Z,9.73
2019-06-15T23:07:42.970Z,10.23
2019-06-15T23:10:09.876Z,13.30
2019-06-15T23:12:37.139Z,11.90
2019-06-15T23:15:06.998Z,8.97
2019-06-15T23:17:33.142Z,8.50
2019-06-15T23:19:59.379Z,9.90
2019-06-15T23:22:25.490Z,8.97
2019-06-15T23:24:51.522Z,10.57
2019-06-15T23:27:17.529Z,7.77
2019-06-15T23:29:46.085Z,7.30
2019-06-15T23:32:11.514Z,13.43
2019-06-15T23:34:37.493Z,9.97
2019-06-15T23:37:07.959Z,10.57
2019-06-15T23:39:36.084Z,7.23
2019-06-15T23:42:01.912Z,6.63
2019-06-15T23:44:28.041Z,8.40
2019-06-15T23:46:54.024Z,7.67
2019-06-15T23:49:20.103Z,13.93
2019-06-15T23:51:46.735Z,15.40
2019-06-15T23:54:12.945Z,9.30
2019-06-15T23:56:39.248Z,26.83
2019-06-15T23:59:07.033Z,12.77
